sensor_id;sensor_type;location;lat;lon;timestamp;temperature;humidity
27314;DHT22;14800;48.174;9.798;2022-09-09T00:00:42;16.00;73.00
27314;DHT22;14800;48.174;9.798;2022-09-09T00:03:26;16.00;73.20
27314;DHT22;14800;48.174;9.798;2022-09-09T00:06:08;16.00;73.40
27314;DHT22;14800;48.174;9.798;2022-09-09T00:11:10;15.90;74.30
27314;DHT22;14800;48.174;9.798;2022-09-09T00:13:48;15.90;73.30
27314;DHT22;14800;48.174;9.798;2022-09-09T00:16:24;15.90;73.50
27314;DHT22;14800;48.174;9.798;2022-09-09T00:21:48;15.90;73.70
27314;DHT22;14800;48.174;9.798;2022-09-09T00:24:35;15.80;73.60
27314;DHT22;14800;48.174;9.798;2022-09-09T00:27:11;15.80;73.90
27314;DHT22;14800;48.174;9.798;2022-09-09T00:30:12;15.80;73.50
27314;DHT22;14800;48.174;9.798;2022-09-09T00:32:39;15.80;74.00
27314;DHT22;14800;48.174;9.798;2022-09-09T00:37:37;15.70;74.00
27314;DHT22;14800;48.174;9.798;2022-09-09T00:40:17;15.60;73.70
27314;DHT22;14800;48.174;9.798;2022-09-09T00:42:44;15.70;74.20
27314;DHT22;14800;48.174;9.798;2022-09-09T00:48:06;15.60;74.40
27314;DHT22;14800;48.174;9.798;2022-09-09T00:50:55;15.60;73.90
27314;DHT22;14800;48.174;9.798;2022-09-09T00:53:39;15.50;74.30
27314;DHT22;14800;48.174;9.798;2022-09-09T00:56:16;15.50;74.20
27314;DHT22;14800;48.174;9.798;2022-09-09T00:59:07;15.40;74.50
27314;DHT22;14800;48.174;9.798;2022-09-09T01:01:36;15.40;74.70
27314;DHT22;14800;48.174;9.798;2022-09-09T01:04:09;15.40;74.20
27314;DHT22;14800;48.174;9.798;2022-09-09T01:06:41;15.40;74.40
27314;DHT22;14800;48.174;9.798;2022-09-09T01:22:21;15.20;74.70
27314;DHT22;14800;48.174;9.798;2022-09-09T01:27:42;15.10;75.50
27314;DHT22;14800;48.174;9.798;2022-09-09T01:30:10;15.10;75.10
27314;DHT22;14800;48.174;9.798;2022-09-09T01:32:45;15.10;75.10
27314;DHT22;14800;48.174;9.798;2022-09-09T01:38:00;15.20;75.40
27314;DHT22;14800;48.174;9.798;2022-09-09T01:40:26;15.10;74.40
27314;DHT22;14800;48.174;9.798;2022-09-09T01:42:52;15.10;74.60
27314;DHT22;14800;48.174;9.798;2022-09-09T01:45:19;15.00;74.90
27314;DHT22;14800;48.174;9.798;2022-09-09T01:47:45;14.90;75.10
27314;DHT22;14800;48.174;9.798;2022-09-09T01:50:13;14.90;75.40
27314;DHT22;14800;48.174;9.798;2022-09-09T01:52:39;14.90;75.70
27314;DHT22;14800;48.174;9.798;2022-09-09T01:55:06;14.90;75.80
27314;DHT22;14800;48.174;9.798;2022-09-09T01:57:54;14.90;75.80
27314;DHT22;14800;48.174;9.798;2022-09-09T02:00:21;14.90;76.20
27314;DHT22;14800;48.174;9.798;2022-09-09T02:05:40;14.90;75.30
27314;DHT22;14800;48.174;9.798;2022-09-09T02:08:10;14.90;75.60
27314;DHT22;14800;48.174;9.798;2022-09-09T02:13:18;14.90;76.00
27314;DHT22;14800;48.174;9.798;2022-09-09T02:16:27;14.90;75.60
27314;DHT22;14800;48.174;9.798;2022-09-09T02:19:06;14.90;76.00
27314;DHT22;14800;48.174;9.798;2022-09-09T02:21:33;14.80;75.30
27314;DHT22;14800;48.174;9.798;2022-09-09T02:24:05;14.80;75.30
27314;DHT22;14800;48.174;9.798;2022-09-09T02:26:37;14.80;75.70
27314;DHT22;14800;48.174;9.798;2022-09-09T02:29:14;14.80;75.60
27314;DHT22;14800;48.174;9.798;2022-09-09T02:31:42;14.70;75.80
27314;DHT22;14800;48.174;9.798;2022-09-09T02:34:11;14.70;75.80
27314;DHT22;14800;48.174;9.798;2022-09-09T02:36:40;14.70;76.10
27314;DHT22;14800;48.174;9.798;2022-09-09T02:39:08;14.70;76.30
27314;DHT22;14800;48.174;9.798;2022-09-09T02:41:38;14.70;76.30
27314;DHT22;14800;48.174;9.798;2022-09-09T02:44:12;14.80;76.60
27314;DHT22;14800;48.174;9.798;2022-09-09T02:52:08;14.80;76.90
27314;DHT22;14800;48.174;9.798;2022-09-09T02:54:43;14.80;76.50
27314;DHT22;14800;48.174;9.798;2022-09-09T02:57:27;14.80;76.90
27314;DHT22;14800;48.174;9.798;2022-09-09T02:59:53;14.80;77.00
27314;DHT22;14800;48.174;9.798;2022-09-09T03:02:22;14.80;76.30
27314;DHT22;14800;48.174;9.798;2022-09-09T03:04:47;14.80;76.40
27314;DHT22;14800;48.174;9.798;2022-09-09T03:07:17;14.90;76.60
27314;DHT22;14800;48.174;9.798;2022-09-09T03:09:43;14.90;76.80
27314;DHT22;14800;48.174;9.798;2022-09-09T03:12:10;14.80;76.70
27314;DHT22;14800;48.174;9.798;2022-09-09T03:14:36;14.80;76.80
27314;DHT22;14800;48.174;9.798;2022-09-09T03:17:04;14.80;77.00
27314;DHT22;14800;48.174;9.798;2022-09-09T03:19:30;14.90;77.40
27314;DHT22;14800;48.174;9.798;2022-09-09T03:21:57;14.80;77.50
27314;DHT22;14800;48.174;9.798;2022-09-09T03:24:22;14.90;77.50
27314;DHT22;14800;48.174;9.798;2022-09-09T03:26:48;14.80;77.60
27314;DHT22;14800;48.174;9.798;2022-09-09T03:29:16;14.90;77.90
27314;DHT22;14800;48.174;9.798;2022-09-09T03:31:43;14.80;77.90
27314;DHT22;14800;48.174;9.798;2022-09-09T03:34:09;14.80;78.10
27314;DHT22;14800;48.174;9.798;2022-09-09T03:36:35;14.80;78.30
27314;DHT22;14800;48.174;9.798;2022-09-09T03:39:00;14.70;78.50
27314;DHT22;14800;48.174;9.798;2022-09-09T03:41:28;14.70;78.80
27314;DHT22;14800;48.174;9.798;2022-09-09T03:43:54;14.70;79.10
27314;DHT22;14800;48.174;9.798;2022-09-09T03:46:21;14.70;79.30
27314;DHT22;14800;48.174;9.798;2022-09-09T03:48:47;14.80;79.40
27314;DHT22;14800;48.174;9.798;2022-09-09T03:51:13;14.90;79.30
27314;DHT22;14800;48.174;9.798;2022-09-09T03:53:38;14.90;79.30
27314;DHT22;14800;48.174;9.798;2022-09-09T03:56:06;14.90;79.40
27314;DHT22;14800;48.174;9.798;2022-09-09T03:58:33;14.90;79.50
27314;DHT22;14800;48.174;9.798;2022-09-09T04:01:01;15.00;79.40
27314;DHT22;14800;48.174;9.798;2022-09-09T04:03:28;15.10;79.50
27314;DHT22;14800;48.174;9.798;2022-09-09T04:05:55;15.10;79.30
27314;DHT22;14800;48.174;9.798;2022-09-09T04:08:21;15.20;79.30
27314;DHT22;14800;48.174;9.798;2022-09-09T04:10:48;15.20;79.20
27314;DHT22;14800;48.174;9.798;2022-09-09T04:13:15;15.30;79.30
27314;DHT22;14800;48.174;9.798;2022-09-09T04:15:43;15.30;79.30
27314;DHT22;14800;48.174;9.798;2022-09-09T04:18:09;15.30;79.20
27314;DHT22;14800;48.174;9.798;2022-09-09T04:20:35;15.30;79.20
27314;DHT22;14800;48.174;9.798;2022-09-09T04:23:01;15.40;79.40
27314;DHT22;14800;48.174;9.798;2022-09-09T04:25:26;15.40;79.40
27314;DHT22;14800;48.174;9.798;2022-09-09T04:27:55;15.40;79.60
27314;DHT22;14800;48.174;9.798;2022-09-09T04:30:22;15.50;80.00
27314;DHT22;14800;48.174;9.798;2022-09-09T04:32:47;15.50;79.90
27314;DHT22;14800;48.174;9.798;2022-09-09T04:35:13;15.60;80.00
27314;DHT22;14800;48.174;9.798;2022-09-09T04:37:39;15.60;79.90
27314;DHT22;14800;48.174;9.798;2022-09-09T04:40:05;15.70;80.00
27314;DHT22;14800;48.174;9.798;2022-09-09T04:42:35;15.70;80.10
27314;DHT22;14800;48.174;9.798;2022-09-09T04:45:01;15.70;80.50
27314;DHT22;14800;48.174;9.798;2022-09-09T04:47:27;15.80;80.40
27314;DHT22;14800;48.174;9.798;2022-09-09T04:49:52;15.80;80.50
27314;DHT22;14800;48.174;9.798;2022-09-09T04:52:20;15.90;80.50
27314;DHT22;14800;48.174;9.798;2022-09-09T04:54:45;15.90;81.20
27314;DHT22;14800;48.174;9.798;2022-09-09T04:57:11;15.90;80.40
27314;DHT22;14800;48.174;9.798;2022-09-09T04:59:38;16.00;80.50
27314;DHT22;14800;48.174;9.798;2022-09-09T05:02:05;16.00;80.60
27314;DHT22;14800;48.174;9.798;2022-09-09T05:04:30;16.00;80.50
27314;DHT22;14800;48.174;9.798;2022-09-09T05:06:56;16.00;80.50
27314;DHT22;14800;48.174;9.798;2022-09-09T05:09:22;16.00;80.70
27314;DHT22;14800;48.174;9.798;2022-09-09T05:11:47;16.00;81.00
27314;DHT22;14800;48.174;9.798;2022-09-09T05:14:14;16.10;81.20
27314;DHT22;14800;48.174;9.798;2022-09-09T05:16:40;16.10;81.40
27314;DHT22;14800;48.174;9.798;2022-09-09T05:19:05;16.10;81.50
27314;DHT22;14800;48.174;9.798;2022-09-09T05:21:33;16.20;81.60
27314;DHT22;14800;48.174;9.798;2022-09-09T05:23:59;16.20;81.50
27314;DHT22;14800;48.174;9.798;2022-09-09T05:26:26;16.20;81.70
27314;DHT22;14800;48.174;9.798;2022-09-09T05:28:52;16.30;81.50
27314;DHT22;14800;48.174;9.798;2022-09-09T05:31:18;16.30;81.30
27314;DHT22;14800;48.174;9.798;2022-09-09T05:33:45;16.30;81.20
27314;DHT22;14800;48.174;9.798;2022-09-09T05:36:13;16.30;81.20
27314;DHT22;14800;48.174;9.798;2022-09-09T05:38:40;16.30;81.30
27314;DHT22;14800;48.174;9.798;2022-09-09T05:41:07;16.30;81.20
27314;DHT22;14800;48.174;9.798;2022-09-09T05:43:33;16.30;81.30
27314;DHT22;14800;48.174;9.798;2022-09-09T05:48:31;16.30;81.30
27314;DHT22;14800;48.174;9.798;2022-09-09T05:50:57;16.30;81.90
27314;DHT22;14800;48.174;9.798;2022-09-09T05:53:23;16.30;81.40
27314;DHT22;14800;48.174;9.798;2022-09-09T05:55:49;16.30;81.70
27314;DHT22;14800;48.174;9.798;2022-09-09T05:58:14;16.30;81.90
27314;DHT22;14800;48.174;9.798;2022-09-09T06:00:42;16.30;81.90
27314;DHT22;14800;48.174;9.798;2022-09-09T06:03:11;16.30;82.20
27314;DHT22;14800;48.174;9.798;2022-09-09T06:05:36;16.30;82.60
27314;DHT22;14800;48.174;9.798;2022-09-09T06:08:03;16.30;82.60
27314;DHT22;14800;48.174;9.798;2022-09-09T06:10:28;16.30;82.90
27314;DHT22;14800;48.174;9.798;2022-09-09T06:12:54;16.30;83.10
27314;DHT22;14800;48.174;9.798;2022-09-09T06:15:20;16.30;83.30
27314;DHT22;14800;48.174;9.798;2022-09-09T06:17:45;16.30;83.50
27314;DHT22;14800;48.174;9.798;2022-09-09T06:20:11;16.40;83.80
27314;DHT22;14800;48.174;9.798;2022-09-09T06:22:40;16.40;83.80
27314;DHT22;14800;48.174;9.798;2022-09-09T06:25:08;16.50;84.10
27314;DHT22;14800;48.174;9.798;2022-09-09T06:27:33;16.60;84.10
27314;DHT22;14800;48.174;9.798;2022-09-09T06:29:59;16.60;84.10
27314;DHT22;14800;48.174;9.798;2022-09-09T06:32:24;16.60;84.30
27314;DHT22;14800;48.174;9.798;2022-09-09T06:34:52;16.70;84.30
27314;DHT22;14800;48.174;9.798;2022-09-09T06:37:17;16.70;84.30
27314;DHT22;14800;48.174;9.798;2022-09-09T06:39:44;16.80;84.20
27314;DHT22;14800;48.174;9.798;2022-09-09T06:42:09;16.80;84.10
27314;DHT22;14800;48.174;9.798;2022-09-09T06:44:35;16.90;84.00
27314;DHT22;14800;48.174;9.798;2022-09-09T06:47:01;17.00;84.10
27314;DHT22;14800;48.174;9.798;2022-09-09T06:49:27;17.00;84.10
27314;DHT22;14800;48.174;9.798;2022-09-09T06:51:53;17.10;84.10
27314;DHT22;14800;48.174;9.798;2022-09-09T06:54:19;17.10;84.20
27314;DHT22;14800;48.174;9.798;2022-09-09T06:56:45;17.20;84.10
27314;DHT22;14800;48.174;9.798;2022-09-09T06:59:11;17.20;84.20
27314;DHT22;14800;48.174;9.798;2022-09-09T07:01:42;17.30;84.20
27314;DHT22;14800;48.174;9.798;2022-09-09T07:04:12;17.30;84.20
27314;DHT22;14800;48.174;9.798;2022-09-09T07:06:41;17.40;84.00
27314;DHT22;14800;48.174;9.798;2022-09-09T07:09:10;17.40;84.00
27314;DHT22;14800;48.174;9.798;2022-09-09T07:11:44;17.50;84.00
27314;DHT22;14800;48.174;9.798;2022-09-09T07:14:10;17.60;84.30
27314;DHT22;14800;48.174;9.798;2022-09-09T07:16:42;17.70;83.80
27314;DHT22;14800;48.174;9.798;2022-09-09T07:19:08;17.70;83.60
27314;DHT22;14800;48.174;9.798;2022-09-09T07:21:34;17.70;83.10
27314;DHT22;14800;48.174;9.798;2022-09-09T07:24:00;17.80;82.90
27314;DHT22;14800;48.174;9.798;2022-09-09T07:26:29;17.80;82.90
27314;DHT22;14800;48.174;9.798;2022-09-09T07:28:55;17.80;82.90
27314;DHT22;14800;48.174;9.798;2022-09-09T07:31:28;17.90;82.90
27314;DHT22;14800;48.174;9.798;2022-09-09T07:33:56;17.90;82.90
27314;DHT22;14800;48.174;9.798;2022-09-09T07:36:24;18.00;82.60
27314;DHT22;14800;48.174;9.798;2022-09-09T07:38:53;18.00;82.60
27314;DHT22;14800;48.174;9.798;2022-09-09T07:41:30;18.00;82.40
27314;DHT22;14800;48.174;9.798;2022-09-09T07:43:58;18.00;82.60
27314;DHT22;14800;48.174;9.798;2022-09-09T07:46:25;18.10;82.30
27314;DHT22;14800;48.174;9.798;2022-09-09T07:48:53;18.10;82.60
27314;DHT22;14800;48.174;9.798;2022-09-09T07:51:25;18.20;82.60
27314;DHT22;14800;48.174;9.798;2022-09-09T07:53:54;18.20;83.00
27314;DHT22;14800;48.174;9.798;2022-09-09T07:56:21;18.30;82.70
27314;DHT22;14800;48.174;9.798;2022-09-09T07:58:51;18.30;82.40
27314;DHT22;14800;48.174;9.798;2022-09-09T08:01:31;18.40;82.00
27314;DHT22;14800;48.174;9.798;2022-09-09T08:03:59;18.50;82.20
27314;DHT22;14800;48.174;9.798;2022-09-09T08:06:27;18.50;81.60
27314;DHT22;14800;48.174;9.798;2022-09-09T08:08:54;18.50;81.50
27314;DHT22;14800;48.174;9.798;2022-09-09T08:11:21;18.50;81.30
27314;DHT22;14800;48.174;9.798;2022-09-09T08:13:49;18.60;81.30
27314;DHT22;14800;48.174;9.798;2022-09-09T08:16:21;18.60;81.30
27314;DHT22;14800;48.174;9.798;2022-09-09T08:18:51;18.60;81.20
27314;DHT22;14800;48.174;9.798;2022-09-09T08:21:19;18.60;80.80
27314;DHT22;14800;48.174;9.798;2022-09-09T08:23:46;18.70;80.80
27314;DHT22;14800;48.174;9.798;2022-09-09T08:26:17;18.70;80.70
27314;DHT22;14800;48.174;9.798;2022-09-09T08:28:44;18.80;80.50
27314;DHT22;14800;48.174;9.798;2022-09-09T08:31:16;18.80;80.50
27314;DHT22;14800;48.174;9.798;2022-09-09T08:33:43;18.80;80.30
27314;DHT22;14800;48.174;9.798;2022-09-09T08:36:16;18.90;80.30
27314;DHT22;14800;48.174;9.798;2022-09-09T08:38:42;18.90;80.30
27314;DHT22;14800;48.174;9.798;2022-09-09T08:41:29;18.90;79.90
27314;DHT22;14800;48.174;9.798;2022-09-09T08:46:53;19.00;79.20
27314;DHT22;14800;48.174;9.798;2022-09-09T08:55:03;19.10;78.80
27314;DHT22;14800;48.174;9.798;2022-09-09T08:57:31;19.10;78.80
27314;DHT22;14800;48.174;9.798;2022-09-09T08:59:57;19.10;79.10
27314;DHT22;14800;48.174;9.798;2022-09-09T09:02:53;19.20;79.30
27314;DHT22;14800;48.174;9.798;2022-09-09T09:05:36;19.30;79.10
27314;DHT22;14800;48.174;9.798;2022-09-09T09:08:20;19.30;78.70
27314;DHT22;14800;48.174;9.798;2022-09-09T09:10:54;19.40;77.70
27314;DHT22;14800;48.174;9.798;2022-09-09T09:18:47;19.50;76.90
27314;DHT22;14800;48.174;9.798;2022-09-09T09:24:12;19.60;76.80
27314;DHT22;14800;48.174;9.798;2022-09-09T09:26:43;19.60;76.60
27314;DHT22;14800;48.174;9.798;2022-09-09T09:29:14;19.60;76.50
27314;DHT22;14800;48.174;9.798;2022-09-09T09:31:46;19.60;77.10
27314;DHT22;14800;48.174;9.798;2022-09-09T09:34:13;19.60;77.20
27314;DHT22;14800;48.174;9.798;2022-09-09T09:36:42;19.70;77.00
27314;DHT22;14800;48.174;9.798;2022-09-09T09:39:10;19.70;77.00
27314;DHT22;14800;48.174;9.798;2022-09-09T09:41:38;19.70;76.90
27314;DHT22;14800;48.174;9.798;2022-09-09T09:44:06;19.80;76.50
27314;DHT22;14800;48.174;9.798;2022-09-09T09:46:45;19.80;76.30
27314;DHT22;14800;48.174;9.798;2022-09-09T09:49:10;19.90;76.50
27314;DHT22;14800;48.174;9.798;2022-09-09T09:51:36;19.90;76.30
27314;DHT22;14800;48.174;9.798;2022-09-09T09:56:43;20.10;75.40
27314;DHT22;14800;48.174;9.798;2022-09-09T10:01:53;20.30;73.90
27314;DHT22;14800;48.174;9.798;2022-09-09T10:04:21;20.40;74.30
27314;DHT22;14800;48.174;9.798;2022-09-09T10:06:49;20.50;73.50
27314;DHT22;14800;48.174;9.798;2022-09-09T10:09:29;20.60;73.30
27314;DHT22;14800;48.174;9.798;2022-09-09T10:21:10;20.90;70.10
27314;DHT22;14800;48.174;9.798;2022-09-09T10:26:58;21.00;68.50
27314;DHT22;14800;48.174;9.798;2022-09-09T10:37:40;21.30;66.00
27314;DHT22;14800;48.174;9.798;2022-09-09T10:40:29;21.30;65.30
27314;DHT22;14800;48.174;9.798;2022-09-09T10:48:21;21.30;64.40
27314;DHT22;14800;48.174;9.798;2022-09-09T10:51:29;21.30;65.50
27314;DHT22;14800;48.174;9.798;2022-09-09T10:54:04;21.30;65.30
27314;DHT22;14800;48.174;9.798;2022-09-09T10:56:33;21.30;65.30
27314;DHT22;14800;48.174;9.798;2022-09-09T11:01:37;21.30;65.00
27314;DHT22;14800;48.174;9.798;2022-09-09T11:04:17;21.30;64.40
27314;DHT22;14800;48.174;9.798;2022-09-09T11:06:49;21.30;64.20
27314;DHT22;14800;48.174;9.798;2022-09-09T11:09:21;21.30;65.10
27314;DHT22;14800;48.174;9.798;2022-09-09T11:11:55;21.20;65.50
27314;DHT22;14800;48.174;9.798;2022-09-09T11:14:41;21.20;65.00
27314;DHT22;14800;48.174;9.798;2022-09-09T11:19:46;21.30;64.40
27314;DHT22;14800;48.174;9.798;2022-09-09T11:22:24;21.50;65.00
27314;DHT22;14800;48.174;9.798;2022-09-09T11:27:29;21.70;63.40
27314;DHT22;14800;48.174;9.798;2022-09-09T11:41:05;22.00;59.40
27314;DHT22;14800;48.174;9.798;2022-09-09T11:43:48;22.10;60.80
27314;DHT22;14800;48.174;9.798;2022-09-09T11:46:22;22.00;59.80
27314;DHT22;14800;48.174;9.798;2022-09-09T11:49:03;22.00;59.60
27314;DHT22;14800;48.174;9.798;2022-09-09T11:51:31;21.90;59.00
27314;DHT22;14800;48.174;9.798;2022-09-09T11:54:02;22.00;60.60
27314;DHT22;14800;48.174;9.798;2022-09-09T11:56:47;21.90;60.30
27314;DHT22;14800;48.174;9.798;2022-09-09T11:59:22;21.90;60.80
27314;DHT22;14800;48.174;9.798;2022-09-09T12:04:37;21.90;59.10
27314;DHT22;14800;48.174;9.798;2022-09-09T12:09:38;22.00;61.90
27314;DHT22;14800;48.174;9.798;2022-09-09T12:14:42;22.00;59.40
27314;DHT22;14800;48.174;9.798;2022-09-09T12:19:40;22.00;59.30
27314;DHT22;14800;48.174;9.798;2022-09-09T12:30:43;22.00;58.00
27314;DHT22;14800;48.174;9.798;2022-09-09T12:33:16;22.00;59.70
27314;DHT22;14800;48.174;9.798;2022-09-09T12:35:43;22.10;60.10
27314;DHT22;14800;48.174;9.798;2022-09-09T12:38:26;22.10;59.90
27314;DHT22;14800;48.174;9.798;2022-09-09T12:40:56;22.00;59.40
27314;DHT22;14800;48.174;9.798;2022-09-09T12:43:24;22.00;59.50
27314;DHT22;14800;48.174;9.798;2022-09-09T12:45:52;22.10;60.30
27314;DHT22;14800;48.174;9.798;2022-09-09T12:48:35;22.10;60.60
27314;DHT22;14800;48.174;9.798;2022-09-09T12:51:02;22.10;60.60
27314;DHT22;14800;48.174;9.798;2022-09-09T12:53:35;22.10;60.50
27314;DHT22;14800;48.174;9.798;2022-09-09T12:56:02;22.10;60.00
27314;DHT22;14800;48.174;9.798;2022-09-09T12:58:30;22.20;60.10
27314;DHT22;14800;48.174;9.798;2022-09-09T13:00:58;22.20;60.30
27314;DHT22;14800;48.174;9.798;2022-09-09T13:03:25;22.20;60.60
27314;DHT22;14800;48.174;9.798;2022-09-09T13:05:52;22.20;60.20
27314;DHT22;14800;48.174;9.798;2022-09-09T13:08:19;22.20;60.50
27314;DHT22;14800;48.174;9.798;2022-09-09T13:10:55;22.30;60.60
27314;DHT22;14800;48.174;9.798;2022-09-09T13:13:25;22.30;60.80
27314;DHT22;14800;48.174;9.798;2022-09-09T13:15:56;22.40;60.50
27314;DHT22;14800;48.174;9.798;2022-09-09T13:18:26;22.40;60.50
27314;DHT22;14800;48.174;9.798;2022-09-09T13:20:52;22.40;60.90
27314;DHT22;14800;48.174;9.798;2022-09-09T13:23:19;22.40;60.80
27314;DHT22;14800;48.174;9.798;2022-09-09T13:26:03;22.50;59.40
27314;DHT22;14800;48.174;9.798;2022-09-09T13:28:30;22.50;58.00
27314;DHT22;14800;48.174;9.798;2022-09-09T13:31:00;22.60;59.00
27314;DHT22;14800;48.174;9.798;2022-09-09T13:33:35;22.60;58.80
27314;DHT22;14800;48.174;9.798;2022-09-09T13:36:03;22.70;58.20
27314;DHT22;14800;48.174;9.798;2022-09-09T13:38:32;22.70;58.00
27314;DHT22;14800;48.174;9.798;2022-09-09T13:41:00;22.70;57.10
27314;DHT22;14800;48.174;9.798;2022-09-09T13:43:42;22.80;56.10
27314;DHT22;14800;48.174;9.798;2022-09-09T13:46:31;22.80;56.40
27314;DHT22;14800;48.174;9.798;2022-09-09T13:49:16;22.80;55.00
27314;DHT22;14800;48.174;9.798;2022-09-09T13:51:45;22.80;55.90
27314;DHT22;14800;48.174;9.798;2022-09-09T13:54:14;22.90;55.80
27314;DHT22;14800;48.174;9.798;2022-09-09T13:56:41;22.90;54.70
27314;DHT22;14800;48.174;9.798;2022-09-09T13:59:12;22.90;53.90
27314;DHT22;14800;48.174;9.798;2022-09-09T14:01:38;22.90;54.10
27314;DHT22;14800;48.174;9.798;2022-09-09T14:04:04;22.90;54.60
27314;DHT22;14800;48.174;9.798;2022-09-09T14:06:32;23.00;54.00
27314;DHT22;14800;48.174;9.798;2022-09-09T14:08:58;23.00;54.00
27314;DHT22;14800;48.174;9.798;2022-09-09T14:11:24;23.00;53.80
27314;DHT22;14800;48.174;9.798;2022-09-09T14:13:50;23.00;53.40
27314;DHT22;14800;48.174;9.798;2022-09-09T14:16:17;23.00;53.70
27314;DHT22;14800;48.174;9.798;2022-09-09T14:18:46;23.00;53.50
27314;DHT22;14800;48.174;9.798;2022-09-09T14:21:12;23.00;53.30
27314;DHT22;14800;48.174;9.798;2022-09-09T14:23:38;23.00;53.40
27314;DHT22;14800;48.174;9.798;2022-09-09T14:26:07;23.00;52.90
27314;DHT22;14800;48.174;9.798;2022-09-09T14:28:34;22.90;53.60
27314;DHT22;14800;48.174;9.798;2022-09-09T14:31:02;22.90;54.00
27314;DHT22;14800;48.174;9.798;2022-09-09T14:33:28;22.90;54.00
27314;DHT22;14800;48.174;9.798;2022-09-09T14:36:00;22.80;53.90
27314;DHT22;14800;48.174;9.798;2022-09-09T14:38:31;22.80;53.50
27314;DHT22;14800;48.174;9.798;2022-09-09T14:40:56;22.80;53.80
27314;DHT22;14800;48.174;9.798;2022-09-09T14:43:24;22.80;53.90
27314;DHT22;14800;48.174;9.798;2022-09-09T14:45:49;22.80;54.20
27314;DHT22;14800;48.174;9.798;2022-09-09T14:48:16;22.80;54.10
27314;DHT22;14800;48.174;9.798;2022-09-09T14:50:42;22.90;54.30
27314;DHT22;14800;48.174;9.798;2022-09-09T14:53:08;22.90;54.10
27314;DHT22;14800;48.174;9.798;2022-09-09T14:55:36;22.90;54.00
27314;DHT22;14800;48.174;9.798;2022-09-09T14:58:02;23.00;54.00
27314;DHT22;14800;48.174;9.798;2022-09-09T15:00:28;23.00;53.80
27314;DHT22;14800;48.174;9.798;2022-09-09T15:02:54;23.00;53.30
27314;DHT22;14800;48.174;9.798;2022-09-09T15:05:20;23.00;52.80
27314;DHT22;14800;48.174;9.798;2022-09-09T15:07:46;23.00;53.60
27314;DHT22;14800;48.174;9.798;2022-09-09T15:10:13;23.00;53.70
27314;DHT22;14800;48.174;9.798;2022-09-09T15:12:39;23.00;53.60
27314;DHT22;14800;48.174;9.798;2022-09-09T15:15:05;23.00;53.90
27314;DHT22;14800;48.174;9.798;2022-09-09T15:17:31;23.00;53.80
27314;DHT22;14800;48.174;9.798;2022-09-09T15:19:57;23.00;54.00
27314;DHT22;14800;48.174;9.798;2022-09-09T15:22:23;23.00;54.00
27314;DHT22;14800;48.174;9.798;2022-09-09T15:24:49;23.00;54.10
27314;DHT22;14800;48.174;9.798;2022-09-09T15:27:15;23.00;54.50
27314;DHT22;14800;48.174;9.798;2022-09-09T15:29:41;23.00;54.30
27314;DHT22;14800;48.174;9.798;2022-09-09T15:32:07;23.10;54.20
27314;DHT22;14800;48.174;9.798;2022-09-09T15:34:33;23.00;54.10
27314;DHT22;14800;48.174;9.798;2022-09-09T15:36:58;23.10;54.10
27314;DHT22;14800;48.174;9.798;2022-09-09T15:39:25;23.00;54.30
27314;DHT22;14800;48.174;9.798;2022-09-09T15:41:51;23.10;53.70
27314;DHT22;14800;48.174;9.798;2022-09-09T15:44:17;23.10;54.00
27314;DHT22;14800;48.174;9.798;2022-09-09T15:46:51;23.00;54.00
27314;DHT22;14800;48.174;9.798;2022-09-09T15:49:19;23.00;54.30
27314;DHT22;14800;48.174;9.798;2022-09-09T15:51:57;23.10;54.50
27314;DHT22;14800;48.174;9.798;2022-09-09T15:54:23;23.00;54.60
27314;DHT22;14800;48.174;9.798;2022-09-09T15:56:52;23.00;54.00
27314;DHT22;14800;48.174;9.798;2022-09-09T15:59:18;23.00;53.90
27314;DHT22;14800;48.174;9.798;2022-09-09T16:01:44;23.00;53.80
27314;DHT22;14800;48.174;9.798;2022-09-09T16:04:09;23.00;54.00
27314;DHT22;14800;48.174;9.798;2022-09-09T16:06:35;23.00;54.20
27314;DHT22;14800;48.174;9.798;2022-09-09T16:09:04;22.90;54.10
27314;DHT22;14800;48.174;9.798;2022-09-09T16:11:33;22.90;53.60
27314;DHT22;14800;48.174;9.798;2022-09-09T16:14:00;22.90;53.00
27314;DHT22;14800;48.174;9.798;2022-09-09T16:16:27;22.90;53.50
27314;DHT22;14800;48.174;9.798;2022-09-09T16:18:55;22.80;53.70
27314;DHT22;14800;48.174;9.798;2022-09-09T16:21:32;22.70;53.40
27314;DHT22;14800;48.174;9.798;2022-09-09T16:24:00;22.70;53.20
27314;DHT22;14800;48.174;9.798;2022-09-09T16:26:27;22.60;54.30
27314;DHT22;14800;48.174;9.798;2022-09-09T16:28:53;22.40;54.20
27314;DHT22;14800;48.174;9.798;2022-09-09T16:31:21;22.20;55.20
27314;DHT22;14800;48.174;9.798;2022-09-09T16:33:48;22.00;56.50
27314;DHT22;14800;48.174;9.798;2022-09-09T16:36:17;21.70;57.00
27314;DHT22;14800;48.174;9.798;2022-09-09T16:38:43;21.40;57.70
27314;DHT22;14800;48.174;9.798;2022-09-09T16:41:09;21.10;58.20
27314;DHT22;14800;48.174;9.798;2022-09-09T16:43:36;20.90;59.40
27314;DHT22;14800;48.174;9.798;2022-09-09T16:46:03;20.60;60.00
27314;DHT22;14800;48.174;9.798;2022-09-09T16:48:36;20.40;60.70
27314;DHT22;14800;48.174;9.798;2022-09-09T16:51:04;20.20;61.10
27314;DHT22;14800;48.174;9.798;2022-09-09T16:53:31;20.10;62.20
27314;DHT22;14800;48.174;9.798;2022-09-09T16:55:57;20.00;62.40
27314;DHT22;14800;48.174;9.798;2022-09-09T16:58:23;20.00;62.40
27314;DHT22;14800;48.174;9.798;2022-09-09T17:00:49;20.00;62.70
27314;DHT22;14800;48.174;9.798;2022-09-09T17:03:16;20.00;63.00
27314;DHT22;14800;48.174;9.798;2022-09-09T17:05:42;19.90;63.40
27314;DHT22;14800;48.174;9.798;2022-09-09T17:08:08;20.00;63.70
27314;DHT22;14800;48.174;9.798;2022-09-09T17:10:34;20.00;63.70
27314;DHT22;14800;48.174;9.798;2022-09-09T17:13:05;20.00;64.10
27314;DHT22;14800;48.174;9.798;2022-09-09T17:15:30;20.00;64.00
27314;DHT22;14800;48.174;9.798;2022-09-09T17:17:56;20.00;64.10
27314;DHT22;14800;48.174;9.798;2022-09-09T17:20:21;20.00;63.80
27314;DHT22;14800;48.174;9.798;2022-09-09T17:22:47;20.00;64.00
27314;DHT22;14800;48.174;9.798;2022-09-09T17:25:14;20.10;63.60
27314;DHT22;14800;48.174;9.798;2022-09-09T17:27:40;20.00;63.20
27314;DHT22;14800;48.174;9.798;2022-09-09T17:30:06;20.00;63.40
27314;DHT22;14800;48.174;9.798;2022-09-09T17:32:31;19.90;62.70
27314;DHT22;14800;48.174;9.798;2022-09-09T17:34:57;19.90;62.60
27314;DHT22;14800;48.174;9.798;2022-09-09T17:37:22;19.80;62.50
27314;DHT22;14800;48.174;9.798;2022-09-09T17:39:48;19.80;62.50
27314;DHT22;14800;48.174;9.798;2022-09-09T17:42:14;19.70;62.00
27314;DHT22;14800;48.174;9.798;2022-09-09T17:44:40;19.60;62.20
27314;DHT22;14800;48.174;9.798;2022-09-09T17:47:07;19.60;62.30
27314;DHT22;14800;48.174;9.798;2022-09-09T17:49:32;19.50;62.60
27314;DHT22;14800;48.174;9.798;2022-09-09T17:51:58;19.40;62.40